Time;durP1;ratioP1;P1;durP2;ratioP2;P2;SDS_P1;SDS_P2;PMS_P1;PMS_P2;Temp;Humidity;BMP_temperature;BMP_pressure;BME280_temperature;BME280_humidity;BME280_pressure;Samples;Min_cycle;Max_cycle;Signal;HPM_P1;HPM_P2
2021/11/08 00:02:17;;;;;;;43.63;24.30;;;;;;;10.84;62.69;95645.53;4991045;28;20361;-72
2021/11/08 00:04:42;;;;;;;48.20;26.13;;;;;;;11.08;62.68;95640.88;4991129;28;20058;-73
2021/11/08 00:07:08;;;;;;;41.38;24.23;;;;;;;11.36;61.27;95646.19;5001668;28;20655;-73
2021/11/08 00:09:34;;;;;;;52.25;24.45;;;;;;;10.73;62.94;95644.94;4996608;28;20022;-72
2021/11/08 00:12:00;;;;;;;43.33;23.88;;;;;;;10.31;63.96;95632.59;4998882;28;20026;-72
2021/11/08 00:14:26;;;;;;;42.38;23.58;;;;;;;10.26;65.07;95646.75;4990466;28;20523;-73
2021/11/08 00:21:46;;;;;;;47.03;24.75;;;;;;;12.07;60.51;95627.97;5003652;28;20372;-72
2021/11/08 00:24:14;;;;;;;49.08;25.05;;;;;;;12.08;59.25;95645.53;4997852;28;20026;-72
2021/11/08 00:26:39;;;;;;;49.58;24.73;;;;;;;12.02;58.52;95652.06;5005538;28;20014;-72
2021/11/08 00:29:05;;;;;;;46.30;25.08;;;;;;;11.76;59.57;95638.47;4990223;28;20520;-72
2021/11/08 00:31:30;;;;;;;45.85;24.20;;;;;;;11.89;60.02;95641.16;4990523;28;20109;-72
2021/11/08 00:33:56;;;;;;;51.60;25.88;;;;;;;12.48;59.51;95649.94;4990330;28;20106;-72
2021/11/08 00:36:21;;;;;;;50.15;24.83;;;;;;;12.46;59.16;95641.47;4997600;28;20075;-72
2021/11/08 00:38:47;;;;;;;45.17;24.00;;;;;;;11.63;59.41;95648.09;4997846;28;20034;-73
2021/11/08 00:41:13;;;;;;;42.72;23.63;;;;;;;12.03;59.64;95661.66;4999076;28;20476;-73
2021/11/08 00:43:38;;;;;;;41.30;22.42;;;;;;;11.25;60.40;95650.94;5009782;28;20088;-71
2021/11/08 00:46:04;;;;;;;46.85;25.42;;;;;;;11.22;62.48;95675.50;5010197;28;20029;-71
2021/11/08 00:48:34;;;;;;;46.78;24.50;;;;;;;11.50;60.66;95665.63;5010071;28;20022;-70
2021/11/08 00:51:00;;;;;;;42.78;24.45;;;;;;;12.03;59.65;95658.97;5010650;28;20030;-71
2021/11/08 00:53:26;;;;;;;42.97;24.05;;;;;;;11.44;60.68;95667.59;5002546;28;20026;-71
2021/11/08 00:55:53;;;;;;;38.40;22.20;;;;;;;11.13;61.79;95670.06;5004403;28;20032;-71
2021/11/08 00:58:26;;;;;;;40.58;24.15;;;;;;;11.54;60.49;95658.63;5009988;28;20055;-70
2021/11/08 01:00:52;;;;;;;38.05;22.55;;;;;;;11.31;60.97;95680.91;5009443;28;20487;-70
2021/11/08 01:03:20;;;;;;;45.78;24.83;;;;;;;11.57;61.05;95663.38;5009599;28;20026;-71
2021/11/08 01:05:47;;;;;;;41.35;22.38;;;;;;;10.77;63.49;95677.09;5009710;28;20391;-71
2021/11/08 01:08:12;;;;;;;49.13;24.75;;;;;;;10.63;63.64;95669.03;5000991;28;20030;-70
2021/11/08 01:10:38;;;;;;;53.92;27.10;;;;;;;10.99;62.53;95679.09;4999989;28;20377;-73
2021/11/08 01:13:03;;;;;;;50.78;25.48;;;;;;;10.67;64.04;95678.03;5005851;28;20022;-72
2021/11/08 01:15:29;;;;;;;54.63;27.15;;;;;;;11.27;63.20;95677.28;5009598;28;20529;-72
2021/11/08 01:17:54;;;;;;;62.25;27.60;;;;;;;11.56;62.05;95687.63;5010599;28;20022;-73
2021/11/08 01:20:21;;;;;;;47.40;25.65;;;;;;;11.52;61.27;95676.00;5013222;28;20026;-72
2021/11/08 01:22:48;;;;;;;48.30;24.70;;;;;;;11.20;62.13;95685.63;5006593;28;20039;-73
2021/11/08 01:25:14;;;;;;;48.58;24.88;;;;;;;11.01;61.92;95683.06;5005346;28;20053;-72
2021/11/08 01:27:43;;;;;;;48.03;25.58;;;;;;;10.99;62.40;95684.41;5006715;28;20061;-73
2021/11/08 01:30:24;;;;;;;47.97;24.60;;;;;;;10.81;63.84;95691.38;5012986;28;20033;-73
2021/11/08 01:33:03;;;;;;;49.42;25.48;;;;;;;10.35;64.82;95679.59;5013214;28;20032;-73
2021/11/08 01:35:40;;;;;;;46.47;24.77;;;;;;;10.90;63.90;95687.78;5013261;28;20037;-72
2021/11/08 01:38:11;;;;;;;47.42;24.90;;;;;;;10.71;65.02;95695.00;5007371;28;20566;-72
2021/11/08 01:40:38;;;;;;;57.95;27.15;;;;;;;10.75;64.07;95685.38;5009061;28;20368;-73
2021/11/08 01:43:05;;;;;;;53.97;26.35;;;;;;;10.63;63.63;95688.47;5009755;28;20162;-72
2021/11/08 01:45:31;;;;;;;54.88;26.95;;;;;;;10.61;64.68;95681.88;5013343;28;20517;-73
2021/11/08 01:47:57;;;;;;;65.18;28.67;;;;;;;11.44;62.51;95686.25;5013368;28;20026;-73
2021/11/08 01:50:24;;;;;;;67.60;29.98;;;;;;;11.41;61.61;95678.06;5012958;28;20037;-72
2021/11/08 01:52:53;;;;;;;66.53;30.00;;;;;;;11.24;62.54;95669.88;5010920;28;20042;-73
2021/11/08 01:55:22;;;;;;;54.53;27.13;;;;;;;11.39;61.44;95683.69;5005022;28;20487;-71
2021/11/08 01:57:49;;;;;;;70.18;30.65;;;;;;;11.48;61.56;95697.13;5013376;28;20053;-75
2021/11/08 02:00:16;;;;;;;54.45;27.60;;;;;;;10.49;64.30;95695.59;5013244;28;20041;-74
2021/11/08 02:02:42;;;;;;;61.33;29.33;;;;;;;11.20;62.74;95686.44;5014201;28;20092;-78
2021/11/08 02:05:08;;;;;;;58.10;26.92;;;;;;;10.88;62.94;95694.44;5014707;28;20474;-83
2021/11/08 02:07:34;;;;;;;52.25;25.95;;;;;;;10.52;64.73;95684.38;5009397;28;20022;-75
2021/11/08 02:09:59;;;;;;;49.25;25.73;;;;;;;10.10;65.61;95687.91;4997828;28;20436;-75
2021/11/08 02:12:26;;;;;;;50.25;25.20;;;;;;;10.02;66.17;95694.63;5004944;28;20503;-76
2021/11/08 02:14:51;;;;;;;65.07;28.92;;;;;;;10.48;65.71;95690.56;5013509;28;20030;-80
2021/11/08 02:17:17;;;;;;;47.22;25.80;;;;;;;10.20;65.59;95686.97;5013411;28;20117;-75
2021/11/08 02:19:43;;;;;;;48.90;25.63;;;;;;;10.86;64.77;95697.41;5012369;28;20372;-73
2021/11/08 02:22:09;;;;;;;59.72;28.85;;;;;;;11.58;63.33;95704.13;5008502;28;20026;-80
2021/11/08 02:24:36;;;;;;;47.63;25.00;;;;;;;10.97;63.19;95692.72;4998766;28;20045;-80
2021/11/08 02:27:03;;;;;;;44.60;24.02;;;;;;;10.36;64.68;95694.47;4998698;28;20222;-77
2021/11/08 02:29:28;;;;;;;54.28;26.98;;;;;;;10.89;63.01;95656.09;4994104;28;20030;-85
2021/11/08 02:31:56;;;;;;;54.05;26.65;;;;;;;11.24;62.78;95699.16;4995724;28;20117;-84
2021/11/08 02:34:22;;;;;;;46.67;25.17;;;;;;;11.29;62.83;95689.19;4995310;28;20023;-80
2021/11/08 02:36:48;;;;;;;52.20;26.10;;;;;;;11.08;63.11;95691.44;5001031;28;20055;-74
2021/11/08 02:39:19;;;;;;;64.68;29.20;;;;;;;11.53;61.78;95674.91;4999933;28;20506;-79
2021/11/08 02:41:45;;;;;;;56.13;27.45;;;;;;;11.54;61.54;95695.16;5004198;28;20490;-83
2021/11/08 02:44:11;;;;;;;49.22;26.70;;;;;;;11.42;60.58;95703.63;5031441;28;20113;-83
2021/11/08 02:46:42;;;;;;;42.78;24.60;;;;;;;11.96;60.27;95702.06;5014930;28;20157;-81
2021/11/08 02:49:10;;;;;;;52.05;26.90;;;;;;;12.09;60.41;95705.81;5017516;28;20403;-78
2021/11/08 02:51:37;;;;;;;56.10;26.92;;;;;;;12.29;60.08;95702.69;5018414;28;20041;-81
2021/11/08 02:54:10;;;;;;;45.88;24.77;;;;;;;12.35;59.60;95703.38;5025327;28;20058;-74
2021/11/08 02:56:36;;;;;;;53.65;26.73;;;;;;;11.75;58.93;95699.00;4995236;28;20036;-78
2021/11/08 02:59:01;;;;;;;49.35;25.35;;;;;;;12.19;59.62;95687.69;4994383;28;20022;-81
2021/11/08 03:01:28;;;;;;;64.30;30.08;;;;;;;12.22;59.25;95688.97;4995732;28;20499;-81
2021/11/08 03:03:56;;;;;;;54.10;26.05;;;;;;;11.81;58.67;95689.78;4995838;28;20349;-82
2021/11/08 03:06:41;;;;;;;49.03;25.35;;;;;;;11.79;59.86;95701.84;4999693;28;20391;-81
2021/11/08 03:09:12;;;;;;;54.17;25.77;;;;;;;11.64;60.58;95697.63;5003889;28;20092;-82
2021/11/08 03:11:37;;;;;;;39.83;21.08;;;;;;;11.48;60.15;95693.66;5014588;28;20037;-84
2021/11/08 03:14:05;;;;;;;39.17;22.02;;;;;;;11.06;60.86;95695.50;5013981;28;20029;-82
2021/11/08 03:21:56;;;;;;;34.20;19.48;;;;;;;11.38;61.38;95692.78;5015484;28;20075;-76
2021/11/08 03:27:56;;;;;;;47.92;24.77;;;;;;;10.68;62.64;95709.66;4978752;28;20480;-73
2021/11/08 03:30:02;;;;;;;44.50;25.20;;;;;;;10.82;62.02;95701.72;4981331;28;20111;-75
2021/11/08 03:32:28;;;;;;;44.08;22.48;;;;;;;10.50;63.50;95709.69;4992217;28;20058;-73
2021/11/08 03:35:04;;;;;;;49.65;24.50;;;;;;;10.61;62.62;95701.28;4991879;28;20081;-76
2021/11/08 03:37:36;;;;;;;41.50;23.48;;;;;;;10.74;62.10;95706.91;5006616;28;20025;-75
2021/11/08 03:40:04;;;;;;;43.28;23.75;;;;;;;11.12;62.30;95715.63;4998284;28;20077;-73
2021/11/08 03:42:30;;;;;;;45.75;23.85;;;;;;;11.19;61.92;95702.69;4999693;28;20058;-73
2021/11/08 03:44:55;;;;;;;48.63;24.48;;;;;;;11.63;60.33;95694.16;4991818;28;20030;-77
2021/11/08 03:47:20;;;;;;;49.47;23.73;;;;;;;11.16;60.74;95711.28;4991779;28;20030;-73
2021/11/08 03:49:46;;;;;;;41.80;22.58;;;;;;;11.64;60.48;95705.59;4991699;28;20030;-78
2021/11/08 03:52:11;;;;;;;46.63;23.67;;;;;;;11.60;59.78;95713.41;5000599;28;20506;-75
2021/11/08 03:54:37;;;;;;;46.25;23.10;;;;;;;11.11;60.38;95720.16;5013693;28;20018;-76
2021/11/08 03:57:02;;;;;;;49.63;23.77;;;;;;;11.64;59.93;95727.72;4991732;28;20029;-75
2021/11/08 03:59:28;;;;;;;53.40;24.30;;;;;;;11.54;59.67;95719.91;4991398;28;20454;-75
2021/11/08 04:01:53;;;;;;;44.17;22.98;;;;;;;11.22;61.23;95723.44;4991435;28;20014;-73
2021/11/08 04:04:19;;;;;;;46.22;23.15;;;;;;;11.16;60.86;95719.28;4991248;28;20023;-75
2021/11/08 04:06:47;;;;;;;45.63;24.70;;;;;;;12.01;59.84;95725.94;4991532;28;20018;-73
2021/11/08 04:09:13;;;;;;;43.38;23.25;;;;;;;11.58;59.40;95712.91;4990490;28;20745;-73
2021/11/08 04:11:40;;;;;;;44.60;22.92;;;;;;;11.63;59.28;95720.03;4995528;28;20034;-73
2021/11/08 04:14:08;;;;;;;47.00;24.23;;;;;;;11.59;60.33;95719.03;4994113;28;20053;-73
2021/11/08 04:16:34;;;;;;;51.60;24.05;;;;;;;12.00;59.13;95710.25;4991419;28;20022;-73
2021/11/08 04:19:01;;;;;;;50.17;23.88;;;;;;;12.22;58.99;95726.31;4991051;28;20468;-73
2021/11/08 04:21:28;;;;;;;61.63;26.55;;;;;;;12.46;58.42;95723.41;5006466;28;20045;-73
2021/11/08 04:23:54;;;;;;;53.72;26.15;;;;;;;12.57;58.15;95724.72;4998593;28;20105;-74
2021/11/08 04:26:22;;;;;;;47.13;23.13;;;;;;;12.45;57.75;95719.16;5007921;28;20033;-76
2021/11/08 04:29:06;;;;;;;46.97;24.52;;;;;;;12.29;57.21;95729.38;5010145;28;20360;-73
2021/11/08 04:31:35;;;;;;;42.88;23.13;;;;;;;11.88;57.75;95719.56;5010489;28;20038;-73
2021/11/08 04:34:07;;;;;;;42.90;23.02;;;;;;;12.31;57.48;95727.19;5010197;28;20518;-75
2021/11/08 04:44:34;;;;;;;58.47;26.25;;;;;;;12.25;57.57;95731.06;4993437;28;20488;-75
2021/11/08 04:47:11;;;;;;;47.47;22.77;;;;;;;12.45;57.27;95733.28;4991447;28;20119;-74
2021/11/08 04:57:46;;;;;;;58.40;26.73;;;;;;;12.47;56.97;95727.63;5010656;28;20030;-73
2021/11/08 05:24:46;;;;;;;83.97;30.92;;;;;;;12.09;56.58;95745.81;4992191;28;20029;-73
2021/11/08 05:30:08;;;;;;;78.38;29.42;;;;;;;12.00;56.91;95755.59;5009865;28;20137;-73
2021/11/08 05:32:42;;;;;;;64.43;27.70;;;;;;;12.00;56.67;95766.25;5010436;28;20650;-73
2021/11/08 05:35:10;;;;;;;61.30;27.80;;;;;;;11.94;56.45;95771.69;5010052;28;20029;-75
2021/11/08 05:37:38;;;;;;;68.72;27.88;;;;;;;11.78;57.12;95756.25;5011685;28;20057;-74
2021/11/08 05:40:15;;;;;;;89.72;30.55;;;;;;;11.83;56.43;95764.97;4996635;28;20076;-74
2021/11/08 05:42:41;;;;;;;73.15;28.20;;;;;;;11.76;56.54;95767.19;5003325;28;20041;-74
2021/11/08 05:45:10;;;;;;;64.45;26.67;;;;;;;11.68;56.08;95779.34;5010077;28;20478;-73
2021/11/08 05:47:37;;;;;;;57.10;27.63;;;;;;;11.57;56.76;95785.16;5010163;28;20033;-74
2021/11/08 05:50:03;;;;;;;74.00;28.60;;;;;;;11.44;56.83;95776.03;5009723;28;20029;-73
2021/11/08 05:52:29;;;;;;;74.80;27.83;;;;;;;11.45;57.17;95782.94;5011832;28;20022;-74
2021/11/08 05:54:55;;;;;;;50.25;24.67;;;;;;;11.12;57.31;95784.84;5007564;28;20049;-74
2021/11/08 06:51:29;;;;;;;83.55;29.80;;;;;;;10.75;57.50;95820.25;4995252;28;20049;-80
2021/11/08 06:53:57;;;;;;;72.45;29.48;;;;;;;10.78;57.45;95825.78;4997784;28;20021;-76
2021/11/08 06:56:27;;;;;;;80.18;31.83;;;;;;;10.78;57.62;95839.09;5004108;28;20026;-77
2021/11/08 06:59:05;;;;;;;67.80;28.70;;;;;;;10.79;57.45;95839.88;5004806;28;20030;-77
2021/11/08 07:01:32;;;;;;;79.85;30.95;;;;;;;10.80;57.12;95836.97;5013248;28;20470;-79
2021/11/08 07:03:57;;;;;;;74.90;30.95;;;;;;;10.81;56.92;95841.19;5012298;28;20060;-70
2021/11/08 07:06:23;;;;;;;78.72;27.98;;;;;;;10.75;56.85;95837.03;5011585;28;20050;-69
2021/11/08 07:08:49;;;;;;;71.18;26.70;;;;;;;10.84;57.14;95845.13;5012759;28;20095;-69
2021/11/08 07:11:15;;;;;;;63.55;26.83;;;;;;;10.91;56.48;95842.94;4999317;28;20072;-68
2021/11/08 07:13:41;;;;;;;64.75;26.92;;;;;;;10.92;57.33;95839.97;5006484;28;20046;-70
2021/11/08 07:16:07;;;;;;;55.40;23.75;;;;;;;10.94;57.35;95845.78;4991605;28;20030;-73
2021/11/08 07:18:32;;;;;;;50.28;23.83;;;;;;;11.03;57.25;95853.91;4991414;28;20027;-69
2021/11/08 07:20:57;;;;;;;45.05;21.98;;;;;;;10.99;56.87;95849.47;4991766;28;20396;-76
2021/11/08 07:23:23;;;;;;;55.35;25.42;;;;;;;11.05;57.76;95842.97;5001637;28;20017;-74
2021/11/08 07:25:48;;;;;;;42.33;21.80;;;;;;;10.65;57.94;95839.84;5010952;28;20116;-71
2021/11/08 07:28:15;;;;;;;49.80;21.65;;;;;;;10.86;57.63;95851.00;4991690;28;20468;-68
2021/11/08 07:30:43;;;;;;;48.78;20.58;;;;;;;11.10;57.61;95851.66;5010737;28;20057;-71
2021/11/08 07:33:09;;;;;;;44.40;21.38;;;;;;;11.32;57.44;95850.31;5010569;28;20030;-72
2021/11/08 07:35:34;;;;;;;46.20;21.67;;;;;;;10.54;58.77;95831.16;5011026;28;20033;-75
2021/11/08 07:38:00;;;;;;;40.55;21.42;;;;;;;10.90;58.42;95852.78;5013134;28;20026;-78
2021/11/08 07:40:26;;;;;;;48.38;21.40;;;;;;;11.23;58.00;95842.19;5006888;28;20033;-74
2021/11/08 07:42:51;;;;;;;31.02;18.75;;;;;;;10.61;58.76;95847.59;4997929;28;20387;-76
2021/11/08 07:45:17;;;;;;;32.95;19.08;;;;;;;10.28;59.37;95828.03;4992987;28;20049;-71
2021/11/08 07:47:42;;;;;;;34.72;18.58;;;;;;;10.48;59.21;95834.19;4991765;28;20050;-72
2021/11/08 07:50:08;;;;;;;34.35;19.00;;;;;;;10.83;58.51;95840.91;4990891;28;20133;-77
2021/11/08 07:52:34;;;;;;;37.10;19.45;;;;;;;11.16;57.83;95852.41;4991526;28;20030;-75
2021/11/08 07:55:00;;;;;;;33.67;18.73;;;;;;;11.41;57.17;95849.34;4999955;28;20061;-76
2021/11/08 07:57:26;;;;;;;38.10;21.67;;;;;;;11.64;57.18;95854.81;5003154;28;20045;-72
2021/11/08 07:59:51;;;;;;;35.58;17.75;;;;;;;11.57;56.67;95849.88;5005520;28;20472;-73
2021/11/08 08:02:17;;;;;;;40.70;21.58;;;;;;;11.78;56.24;95852.19;5010967;28;20519;-73
2021/11/08 08:04:43;;;;;;;46.13;23.63;;;;;;;11.89;56.40;95851.75;5010496;28;20091;-72
2021/11/08 08:07:08;;;;;;;41.40;21.95;;;;;;;11.99;55.98;95852.66;5010429;28;20022;-72
2021/11/08 08:09:35;;;;;;;40.88;18.40;;;;;;;12.05;55.94;95854.13;5006549;28;20109;-72
2021/11/08 08:12:00;;;;;;;43.45;22.33;;;;;;;12.13;55.77;95856.09;5001719;28;20141;-72
2021/11/08 08:14:26;;;;;;;42.00;22.75;;;;;;;12.25;55.39;95859.09;5017103;28;20480;-71
2021/11/08 08:16:52;;;;;;;34.25;19.77;;;;;;;12.29;55.28;95856.63;5010697;28;20034;-73
2021/11/08 08:19:21;;;;;;;37.95;20.45;;;;;;;12.35;55.43;95860.75;5011308;28;20653;-80
2021/11/08 08:21:47;;;;;;;41.92;21.58;;;;;;;12.40;55.38;95858.00;5010053;28;20437;-87
2021/11/08 08:24:12;;;;;;;39.78;21.83;;;;;;;12.39;55.24;95854.53;5012728;28;20022;-83
2021/11/08 08:26:40;;;;;;;42.10;20.38;;;;;;;12.51;55.05;95855.91;4999056;28;20670;-81
2021/11/08 08:29:07;;;;;;;35.00;19.13;;;;;;;12.59;55.06;95852.53;4993186;28;20045;-77
2021/11/08 08:31:35;;;;;;;20.55;10.65;;;;;;;12.08;54.24;95859.69;4991989;28;20484;-79
2021/11/08 08:34:01;;;;;;;34.33;13.82;;;;;;;12.40;54.42;95855.31;4992115;28;20483;-76
2021/11/08 08:36:27;;;;;;;23.23;12.77;;;;;;;13.00;54.51;95863.94;4992304;28;20049;-76
2021/11/08 08:38:53;;;;;;;26.83;13.43;;;;;;;13.61;52.99;95848.34;5000045;28;20380;-75
2021/11/08 08:41:19;;;;;;;18.60;10.50;;;;;;;13.10;51.77;95854.09;4994765;28;20017;-79
2021/11/08 08:43:44;;;;;;;17.55;9.80;;;;;;;14.13;50.49;95856.66;4991180;28;20029;-77
2021/11/08 08:46:12;;;;;;;20.08;11.35;;;;;;;14.64;50.10;95846.44;4991189;28;20054;-75
2021/11/08 08:48:37;;;;;;;26.02;9.90;;;;;;;15.06;49.55;95851.06;4991572;28;20101;-82
2021/11/08 08:51:04;;;;;;;23.83;7.65;;;;;;;14.60;47.46;95832.91;4991455;28;20186;-81
2021/11/08 08:53:29;;;;;;;14.18;6.30;;;;;;;14.50;46.65;95859.97;4995743;28;20025;-81
2021/11/08 08:55:55;;;;;;;16.20;6.85;;;;;;;12.82;49.76;95854.19;5003150;28;20022;-85
2021/11/08 08:58:21;;;;;;;20.60;7.35;;;;;;;13.68;48.39;95867.44;4993577;28;20041;-83
2021/11/08 09:01:09;;;;;;;22.50;7.88;;;;;;;13.23;48.62;95875.44;4992389;28;20574;-82
2021/11/08 09:03:35;;;;;;;18.92;7.25;;;;;;;13.49;47.56;95867.63;4992147;28;20034;-83
2021/11/08 09:06:00;;;;;;;13.95;6.50;;;;;;;13.03;48.64;95867.88;4992387;28;20583;-83
2021/11/08 09:08:26;;;;;;;18.20;6.25;;;;;;;13.34;49.25;95862.66;4997750;28;20033;-83
2021/11/08 09:10:51;;;;;;;16.67;4.85;;;;;;;12.11;49.54;95876.94;4992728;28;20423;-82
2021/11/08 09:13:16;;;;;;;15.35;5.82;;;;;;;12.40;49.13;95866.00;4993354;28;20660;-82
2021/11/08 09:16:00;;;;;;;13.77;6.20;;;;;;;11.96;51.42;95876.13;5026981;28;20037;-83
2021/11/08 09:18:26;;;;;;;17.00;5.63;;;;;;;11.61;53.42;95879.38;5011611;28;20030;-83
2021/11/08 09:20:52;;;;;;;12.82;4.90;;;;;;;11.17;53.63;95867.31;5026635;28;20018;-85
2021/11/08 09:23:17;;;;;;;16.92;5.32;;;;;;;11.56;52.51;95879.47;5011904;28;20369;-83
2021/11/08 09:25:43;;;;;;;15.75;5.47;;;;;;;12.03;52.14;95882.94;5002043;28;20541;-83
2021/11/08 09:28:09;;;;;;;22.15;5.18;;;;;;;12.64;51.04;95871.09;5001049;28;20030;-83
2021/11/08 09:30:40;;;;;;;14.93;4.90;;;;;;;12.59;48.26;95872.03;5026874;28;20487;-83
2021/11/08 09:33:07;;;;;;;20.02;5.18;;;;;;;13.15;49.28;95875.34;5025017;28;20124;-84
2021/11/08 09:35:37;;;;;;;16.65;5.13;;;;;;;13.47;48.94;95861.03;5011373;28;20029;-83
2021/11/08 09:38:05;;;;;;;15.52;4.93;;;;;;;13.73;47.53;95874.53;4969761;28;1177248;-83
2021/11/08 09:40:32;;;;;;;14.60;4.47;;;;;;;14.11;47.05;95871.44;5003236;28;20041;-84
2021/11/08 09:42:58;;;;;;;14.70;4.72;;;;;;;14.50;46.69;95882.16;5011425;28;20127;-84
2021/11/08 09:45:25;;;;;;;21.20;4.65;;;;;;;14.75;45.88;95871.84;4997250;28;20192;-83
2021/11/08 09:47:51;;;;;;;16.65;5.15;;;;;;;14.85;43.61;95865.41;4996319;28;20029;-84
2021/11/08 09:50:26;;;;;;;10.85;3.67;;;;;;;15.20;43.65;95868.88;4996125;28;20599;-83
2021/11/08 09:52:51;;;;;;;13.00;4.30;;;;;;;15.62;42.87;95871.88;5011214;28;20157;-84
2021/11/08 09:55:21;;;;;;;8.27;3.95;;;;;;;15.98;41.96;95872.28;5002897;28;20029;-85
2021/11/08 09:57:48;;;;;;;16.48;4.15;;;;;;;16.40;40.29;95882.41;5011560;28;20054;-82
2021/11/08 10:00:37;;;;;;;12.68;4.10;;;;;;;16.75;40.48;95880.38;4996048;28;20026;-85
2021/11/08 10:03:12;;;;;;;13.45;3.53;;;;;;;17.02;40.21;95874.50;4996124;28;20048;-83
2021/11/08 10:05:42;;;;;;;10.93;3.53;;;;;;;17.13;39.96;95881.06;4996341;28;20669;-83
2021/11/08 10:08:08;;;;;;;16.40;4.30;;;;;;;17.19;38.94;95862.81;4996594;28;20019;-86
2021/11/08 10:10:34;;;;;;;7.05;3.50;;;;;;;17.45;38.71;95878.75;4996893;28;20034;-86
2021/11/08 10:13:14;;;;;;;11.68;3.97;;;;;;;17.46;38.49;95882.25;4995671;28;20031;-84
2021/11/08 10:15:45;;;;;;;11.43;3.72;;;;;;;17.56;38.28;95879.94;4996075;28;20033;-83
2021/11/08 10:18:11;;;;;;;15.52;4.13;;;;;;;17.56;37.84;95871.88;4995844;28;20038;-86
2021/11/08 10:20:43;;;;;;;14.50;4.20;;;;;;;17.68;37.52;95879.19;4995503;28;20038;-82
2021/11/08 10:23:10;;;;;;;;;;;;;;;17.73;36.65;95881.72;4995744;28;20146;-83
2021/11/08 10:25:37;;;;;;;8.95;3.50;;;;;;;17.90;36.50;95886.91;5004947;28;20289;-83
2021/11/08 10:28:16;;;;;;;7.85;3.22;;;;;;;18.11;35.52;95875.28;5011955;28;20037;-83
2021/11/08 10:30:45;;;;;;;12.65;5.75;;;;;;;18.23;35.88;95878.03;5014796;28;20026;-83
2021/11/08 10:33:12;;;;;;;8.55;3.22;;;;;;;18.16;34.21;95881.25;5014933;28;20024;-83
2021/11/08 10:35:44;;;;;;;13.18;3.45;;;;;;;18.21;34.84;95880.25;5015236;28;20026;-83
2021/11/08 10:38:13;;;;;;;10.02;3.30;;;;;;;17.96;34.35;95882.09;5015073;28;20026;-84
2021/11/08 10:40:52;;;;;;;12.32;3.25;;;;;;;17.99;35.03;95881.44;5013008;28;20360;-82
2021/11/08 10:43:31;;;;;;;9.98;3.75;;;;;;;16.23;37.31;95875.22;5003660;28;20029;-85
2021/11/08 10:46:12;;;;;;;12.35;3.35;;;;;;;17.09;37.51;95882.81;5013271;28;20109;-82
2021/11/08 10:48:41;;;;;;;13.93;3.60;;;;;;;17.08;36.67;95888.53;5012960;28;20492;-83
2021/11/08 10:51:08;;;;;;;9.55;3.10;;;;;;;16.38;37.64;95883.53;5011593;28;20494;-83
2021/11/08 10:53:50;;;;;;;11.55;3.25;;;;;;;15.45;39.73;95878.81;5012579;28;20034;-84
2021/11/08 10:56:22;;;;;;;9.55;3.58;;;;;;;14.73;40.07;95868.66;5003139;28;20026;-83
2021/11/08 10:58:47;;;;;;;14.57;3.83;;;;;;;14.99;39.68;95869.50;5002297;28;20031;-83
2021/11/08 11:01:51;;;;;;;17.98;3.80;;;;;;;14.59;41.12;95889.41;5026339;28;20448;-85
2021/11/08 11:04:43;;;;;;;25.83;4.35;;;;;;;13.75;42.53;95885.72;5014200;28;20072;-85
2021/11/08 11:07:12;;;;;;;22.40;4.40;;;;;;;13.77;42.87;95878.19;5014780;28;20022;-86
2021/11/08 11:09:38;;;;;;;12.07;3.75;;;;;;;12.30;45.60;95884.88;5019788;28;20160;-86
2021/11/08 11:12:22;;;;;;;12.98;3.90;;;;;;;12.99;44.84;95886.38;5002667;28;20022;-81
2021/11/08 11:14:59;;;;;;;12.25;3.60;;;;;;;13.24;43.95;95841.50;4999314;28;20029;-80
2021/11/08 11:17:28;;;;;;;18.73;4.03;;;;;;;12.08;47.57;95881.00;5029153;28;20159;-77
2021/11/08 11:20:11;;;;;;;18.02;3.60;;;;;;;12.29;47.14;95876.09;5011910;28;20523;-75
2021/11/08 11:22:42;;;;;;;14.02;4.30;;;;;;;12.61;46.58;95869.03;5011172;28;20066;-74
2021/11/08 11:25:09;;;;;;;15.30;3.90;;;;;;;12.37;47.08;95863.91;5009986;28;20482;-75
2021/11/08 11:27:46;;;;;;;15.68;4.18;;;;;;;13.28;45.44;95863.84;4995988;28;20791;-76
2021/11/08 11:30:32;;;;;;;11.25;4.30;;;;;;;13.84;44.52;95859.03;4994004;28;20072;-83
2021/11/08 11:33:06;;;;;;;9.70;4.13;;;;;;;14.12;44.17;95862.31;4994067;28;20034;-82
2021/11/08 11:35:37;;;;;;;14.95;4.55;;;;;;;14.32;44.46;95854.50;4994583;28;20117;-82
2021/11/08 11:38:08;;;;;;;16.02;4.80;;;;;;;14.40;43.41;95836.91;4994880;28;20044;-81
2021/11/08 11:40:39;;;;;;;21.42;5.45;;;;;;;14.65;43.22;95856.06;5002680;28;20029;-85
2021/11/08 11:43:09;;;;;;;13.93;5.22;;;;;;;14.73;42.97;95848.03;4997961;28;20048;-82
2021/11/08 11:45:54;;;;;;;18.75;5.40;;;;;;;14.92;42.74;95855.00;5014910;28;20030;-83
2021/11/08 11:48:27;;;;;;;12.30;4.95;;;;;;;14.96;42.32;95859.41;5012010;28;20053;-82
2021/11/08 11:50:53;;;;;;;16.88;4.72;;;;;;;15.01;42.19;95853.91;5012817;28;20125;-82
2021/11/08 11:53:25;;;;;;;11.43;4.97;;;;;;;15.19;41.97;95852.00;5028969;28;20030;-84
2021/11/08 11:55:51;;;;;;;19.50;5.25;;;;;;;15.45;41.40;95853.88;5007834;28;20350;-83
2021/11/08 11:58:35;;;;;;;17.00;5.00;;;;;;;15.71;40.98;95840.47;4994222;28;20488;-84
2021/11/08 12:01:03;;;;;;;16.38;4.78;;;;;;;15.78;39.75;95849.63;5024973;28;20032;-84
2021/11/08 12:03:29;;;;;;;11.02;4.60;;;;;;;15.48;39.40;95848.69;5012933;28;20021;-84
2021/11/08 12:05:56;;;;;;;19.45;6.00;;;;;;;14.78;40.32;95847.88;5013810;28;20033;-84
2021/11/08 12:08:27;;;;;;;17.30;5.15;;;;;;;14.28;41.10;95848.22;5013604;28;20021;-84
2021/11/08 12:10:53;;;;;;;17.13;4.43;;;;;;;13.81;42.17;95832.91;5006510;28;20380;-82
2021/11/08 12:13:22;;;;;;;15.55;5.30;;;;;;;14.36;42.21;95835.16;4996741;28;20029;-84
2021/11/08 12:15:49;;;;;;;12.50;4.80;;;;;;;14.67;41.42;95832.44;4993827;28;20578;-82
2021/11/08 12:18:17;;;;;;;17.58;4.35;;;;;;;14.85;41.43;95831.38;4993783;28;20032;-82
2021/11/08 12:20:51;;;;;;;14.40;4.45;;;;;;;14.70;40.72;95821.13;4993395;28;20022;-82
2021/11/08 12:23:18;;;;;;;12.05;4.32;;;;;;;14.83;40.58;95831.66;4993405;28;20026;-82
2021/11/08 12:25:44;;;;;;;15.32;5.00;;;;;;;14.48;40.93;95841.50;5002064;28;20399;-82
2021/11/08 12:28:19;;;;;;;14.77;3.80;;;;;;;14.91;39.93;95837.34;4993619;28;20022;-82
2021/11/08 12:30:48;;;;;;;11.05;4.18;;;;;;;14.73;39.23;95834.66;4992978;28;20066;-83
2021/11/08 12:33:32;;;;;;;23.17;5.30;;;;;;;14.09;41.82;95822.81;4992726;28;20030;-83
2021/11/08 12:36:18;;;;;;;13.63;4.00;;;;;;;13.33;43.52;95831.69;5008373;28;20024;-82
2021/11/08 12:38:52;;;;;;;13.38;3.83;;;;;;;13.16;43.69;95824.31;4993408;28;20499;-81
2021/11/08 12:41:25;;;;;;;13.05;4.25;;;;;;;13.96;42.82;95819.91;5008853;28;20052;-82
2021/11/08 12:43:57;;;;;;;11.80;3.97;;;;;;;14.24;41.89;95812.47;4993169;28;20026;-82
2021/11/08 12:46:47;;;;;;;11.98;3.35;;;;;;;13.15;41.00;95827.25;4993301;28;20026;-82
2021/11/08 12:49:51;;;;;;;11.35;3.30;;;;;;;13.70;39.02;95809.09;4991313;28;20373;-82
2021/11/08 12:52:27;;;;;;;10.77;4.00;;;;;;;13.22;41.19;95808.97;4985714;28;20046;-82
2021/11/08 12:55:02;;;;;;;12.25;3.58;;;;;;;14.12;39.52;95795.41;4999282;28;20026;-81
2021/11/08 12:57:59;;;;;;;12.23;3.22;;;;;;;13.12;41.24;95806.50;4992950;28;20022;-81
2021/11/08 13:00:28;;;;;;;10.15;2.95;;;;;;;13.48;40.69;95801.13;5011661;28;20034;-81
2021/11/08 13:03:00;;;;;;;9.80;3.88;;;;;;;14.51;39.45;95794.63;5012271;28;20079;-85
2021/11/08 13:05:32;;;;;;;11.10;3.22;;;;;;;15.25;38.48;95791.81;5011630;28;20018;-83
2021/11/08 13:07:59;;;;;;;9.45;2.80;;;;;;;15.76;38.06;95781.28;5012628;28;20483;-81
2021/11/08 13:10:27;;;;;;;11.50;3.45;;;;;;;16.09;37.03;95784.16;5022554;28;20049;-83
2021/11/08 13:12:55;;;;;;;8.48;2.90;;;;;;;16.28;35.39;95789.91;4992521;28;20034;-82
2021/11/08 13:15:25;;;;;;;6.47;2.63;;;;;;;16.57;35.43;95783.72;4996259;28;20027;-84
2021/11/08 13:18:08;;;;;;;14.60;2.75;;;;;;;16.71;34.44;95777.34;4997364;28;20110;-84
2021/11/08 13:20:41;;;;;;;7.75;3.20;;;;;;;16.94;33.37;95788.56;4996599;28;20031;-81
2021/11/08 13:23:18;;;;;;;8.02;2.80;;;;;;;16.36;33.94;95789.06;4995650;28;20034;-83